West Coxsackie, New York
Current Conditions -  °F | °C
As of 7:51 PM on Saturday 22 Nov 2014 (Local Time) from KALB Reporting Station
Light Rain Light Rain  
Wind Chill:   Ceiling: 3200
Heat Index:   Visibility: 10mi
Dew Point: -6°   Wind: 9mph
Humidity: 53%   Direction: 170°S
Pressure: 30.09"   Gusts: NA
Location:  42.36°N, 73.82°W
Report Text: KALB 230051Z 17008KT 10SM -RA BKN032 OVC041 03/M06 A3009 RMK AO2 RAB22 SLP191 P0001 T00331056
Loading
Personal Weather Stations






























Interactive Weather Map New forecast layout! Learn more

10-Day Weather Forecast

Advertisements
Track Severe Weather on mobile